Pensacola, FL (32507)

5:14 PM CST on December 06, 2016 (GMT -0600)
Beach Haven | | Change Station

Elev 49 ft 30.38 °N, 87.30 °W | Updated 6 minutes ago

Partly Cloudy
Partly Cloudy
64.8 °F
Feels Like 64.8 °F
N
0.6
Wind Variable Wind from East
Gusts 1.2 mph

Today
High -- | Low -- °F
--% Chance of Precip.
Yesterday
High -- | Low -- °F
Precip. -- in
Pressure 29.92 in
Visibility 10.0 miles
Clouds Few 2100 ft
Dew Point 59 °F
Humidity 82%
Rainfall 0.47 in
Snow Depth Not available.
6:32 AM 4:48 PM
Waxing Crescent, 46% visible
METAR KNPA 062256Z 00000KT 10SM FEW021 17/12 A2991 RMK AO2 SLP131 T01670122 $
Pressure 29.92 in
Visibility 10.0 miles
Clouds Few 2100 ft
Dew Point 59 °F
Humidity 82%
Rainfall 0.47 in
Snow Depth Not available.
6:32 AM 4:48 PM
Waxing Crescent, 46% visible
METAR KNPA 062256Z 00000KT 10SM FEW021 17/12 A2991 RMK AO2 SLP131 T01670122 $

10-Day Weather Forecast

Almanac

Astronomy

Dec. 06, 2016 Rise Set
Actual Time
Civil Twilight
Nautical Twilight
Astronomical Twilight
Moon
Length of Visible Light
Length of Day
Tomorrow will be .
, % of the Moon is Illuminated

Today's Extremes

State Highs State Lows

Community

WunderPhotos

Upload Photos

1,956,044 photos uploaded!

WunderBlog® & News

Nearby

Air Quality

  Air Quality AQ Index Pollutant
Not available.

Snow Depth

Station Depth Elevation

Earthquake Activity

City Distance Mag. Time & Date
Minimum magnitude displayed is 2.5.

Coastal Water Temperatures

Place Temperature

Stations

Nearby Weather Stations

Station Location Temp. Windchill Dew Point Humidity Wind Precip. Elev Updated Type
                   

Watches & Warnings

There are currently no watches in effect.